Cashmere, WA (98815)

4:18 AM PST on January 25, 2015 (GMT -0800)
East Cashmere | Change Station
CLOSE
Current Station
Personal Weather Station
Location: CASHMERE, WA
Elevation: 922 ft
Nearby Weather Stations

Elev 922 ft 47.52 °N, 120.44 °W | Updated 3 seconds ago

Fog
Fog
35.6 °F
Feels Like 36 °F
N
0.0
Wind Variable Wind from North
Gusts 0.0 mph

Today
High -- | Low -- °F
--% Chance of Precip.
Yesterday
High -- | Low -- °F
Precip. -- in
7:36 AM 4:52 PM
Waxing Crescent, 31% visible
Pressure 30.24 in
Visibility 0.5 miles
Clouds
Windchill 36 °F
Dew Point 34 °F
Humidity 92%
Rainfall 0.00 in
Snow Depth Not available.
UV Not available.
Pollen 4.00 out of 12
Air Quality Not available.
Flu Activity Not available.
SPECI KEAT 251209Z AUTO 28004KT 1/2SM FG VV003 02/01 A3024 RMK AO2 T00170011 $

More Conditions Fewer Conditions

Pressure 30.24 in
Visibility 0.5 miles
Clouds
Windchill 36 °F
Dew Point 34 °F
Humidity 92%
Rainfall 0.00 in
Snow Depth Not available.
UV Not available.
Pollen 4.00 out of 12
Air Quality Not available.
Flu Activity Not available.
SPECI KEAT 251209Z AUTO 28004KT 1/2SM FG VV003 02/01 A3024 RMK AO2 T00170011 $

More Conditions Fewer Conditions

10-Day Weather Forecast

Almanac

Astronomy

Jan. 25, 2015 Rise Set
Actual Time
Civil Twilight
Nautical Twilight
Astronomical Twilight
Moon
Length of Visible Light
Length of Day
Tomorrow will be .
, % of the Moon is Illuminated

Today's Extremes

State Highs State Lows

Community

WunderPhotos

Upload Photos

1,789,873 photos uploaded!

WunderBlogs® & News

Nearby

Air Quality

  Air Quality AQ Index Pollutant
Not available.

Snow Depth

Station Depth Elevation

Earthquake Activity

City Distance Mag. Time & Date
Minimum magnitude displayed is 2.5.

Coastal Water Temperatures

Place Temperature

Nearby Weather Stations